Aeroporto :
LOGIN :

Iscrizione | Disclaimer

   EN    FR    IT 

 










Sommario :    VFR   VFR Marginale   IFR   IFR Intensivo   IFR Molto Intensivo
Visibilità : 
Base nubi : 
>= 8 km
>= 3000ft
5 / 8 km
1000 / 3000 ft
1500m / 5 km
500 / 1000 ft
800 / 1500m
200 / 500 ft
< 800m
< 200 ft
Simboli :   Temporali  Nebbia  Neve Forte  Precipitazioni Forti  Vento > 20 kt
SIGMETs :   Varie  Temporali  Ghiacco  Turbolenza  Onda orograficha  Ceneri Vulcaniche






- Altitudine del aeroporto : 55 ft
- Codice IATA : PYR


LGAD - Andravida

ULTIMO METAR :
  • 291350Z 34010KT CAVOK 14/M03 Q1019

METARs OBSOLETI :
  • 291320Z 34011KT CAVOK 15/M03 Q1019
  • 291250Z 33011KT 9999 FEW080 15/M02 Q1019
  • 291220Z 33012KT CAVOK 14/M03 Q1019
  • 291150Z 34012KT CAVOK 15/M02 Q1019
  • 291120Z 32013KT CAVOK 14/M02 Q1019
  • 291050Z 33012KT CAVOK 14/M03 Q1019

TAF TAF LGAD
Valido dal 29 a 12 ore il 29 a 21 ore UTC


291100Z 2912/2921 33010KT 9999 FEW020



MetMap, La meteo Aeronautica in un colpo d'occhio ! - Copyright ORBIFLY Dicembre 2007 - Disclaimer

ORBIFLY MET'MAP TEAM :

Programmazione e sviluppo : Alexandra Zaïnal
Concezione : Baudouin d'Aumeries
Aiuto per la programmazione : Marc-Olivier Méhu
Supporto tecnico e logistico : Manuel Goepfert
Aiuto per la traduzione : Arnaldo La Scala

Contatto : metmap@orbifly.com




FONTI E CREDITI :

   NOAA